Time;durP1;ratioP1;P1;durP2;ratioP2;P2;SDS_P1;SDS_P2;PMS_P1;PMS_P2;Temp;Humidity;BMP_temperature;BMP_pressure;BME280_temperature;BME280_humidity;BME280_pressure;Samples;Min_cycle;Max_cycle;Signal;HPM_P1;HPM_P2
2023/06/15 00:01:45;;;;;;;6.32;3.50;;;16.30;99.90;;;;;;5046366;28;20876;-68
2023/06/15 00:04:11;;;;;;;5.03;3.28;;;16.20;99.90;;;;;;5049629;28;20052;-68
2023/06/15 00:06:37;;;;;;;6.75;4.28;;;16.20;99.90;;;;;;5044419;28;20040;-68
2023/06/15 00:09:03;;;;;;;5.97;4.00;;;16.20;99.90;;;;;;5047937;28;20036;-69
2023/06/15 00:11:29;;;;;;;7.60;3.67;;;16.20;99.90;;;;;;5028176;28;20107;-68
2023/06/15 00:13:55;;;;;;;5.10;3.63;;;16.20;99.90;;;;;;5037451;28;20054;-68
2023/06/15 00:16:21;;;;;;;4.97;3.75;;;16.20;99.90;;;;;;5060332;28;20036;-68
2023/06/15 00:18:48;;;;;;;7.55;3.95;;;16.20;99.90;;;;;;5062097;28;20047;-68
2023/06/15 00:21:16;;;;;;;6.05;3.88;;;16.10;99.90;;;;;;5012131;28;20523;-69
2023/06/15 00:23:44;;;;;;;5.85;3.83;;;16.10;99.90;;;;;;5048605;28;20048;-69
2023/06/15 00:26:11;;;;;;;6.63;4.00;;;16.00;99.90;;;;;;5037441;28;20512;-69
2023/06/15 00:28:37;;;;;;;6.45;3.72;;;16.00;99.90;;;;;;5013065;28;20070;-69
2023/06/15 00:31:03;;;;;;;7.28;3.92;;;16.00;99.90;;;;;;5032121;28;20600;-69
2023/06/15 00:33:28;;;;;;;5.07;3.90;;;16.00;99.90;;;;;;5032514;28;20056;-68
2023/06/15 00:35:54;;;;;;;6.22;3.60;;;15.90;99.90;;;;;;5002768;28;20059;-69
2023/06/15 00:38:20;;;;;;;7.07;3.63;;;15.90;99.90;;;;;;5044524;28;20040;-69
2023/06/15 00:40:46;;;;;;;7.03;3.80;;;15.80;99.90;;;;;;4996629;28;21527;-70
2023/06/15 00:43:12;;;;;;;8.27;3.85;;;15.80;99.90;;;;;;5037641;28;20488;-69
2023/06/15 00:45:38;;;;;;;6.50;3.90;;;15.70;99.90;;;;;;5013328;28;20049;-69
2023/06/15 00:48:05;;;;;;;5.28;3.45;;;15.70;99.90;;;;;;5020743;28;20033;-69
2023/06/15 00:50:31;;;;;;;6.97;4.10;;;15.70;99.90;;;;;;5047445;28;20222;-69
2023/06/15 00:53:00;;;;;;;5.80;3.70;;;15.60;99.90;;;;;;5041022;28;20437;-68
2023/06/15 00:55:27;;;;;;;6.55;3.90;;;15.50;99.90;;;;;;5040820;28;20045;-68
2023/06/15 00:57:54;;;;;;;6.95;3.53;;;15.50;99.90;;;;;;5014156;28;20040;-68
2023/06/15 01:00:20;;;;;;;6.70;4.18;;;15.40;99.90;;;;;;5028562;28;20033;-68
2023/06/15 01:02:48;;;;;;;5.55;3.80;;;15.40;99.90;;;;;;5027523;28;20209;-68
2023/06/15 01:05:16;;;;;;;6.45;4.05;;;15.30;99.90;;;;;;5041561;28;20516;-68
2023/06/15 01:07:51;;;;;;;6.22;3.78;;;15.30;99.90;;;;;;5039345;28;20036;-68
2023/06/15 01:10:23;;;;;;;6.80;4.60;;;15.20;99.90;;;;;;5028196;28;20079;-69
2023/06/15 01:12:54;;;;;;;9.65;4.07;;;15.20;99.90;;;;;;5032551;28;20036;-68
2023/06/15 01:15:21;;;;;;;6.97;4.30;;;15.20;99.90;;;;;;5020294;28;20044;-68
2023/06/15 01:17:53;;;;;;;6.38;4.47;;;15.20;99.90;;;;;;5042812;28;20036;-68
2023/06/15 01:20:27;;;;;;;8.15;4.30;;;15.10;99.90;;;;;;5030147;28;20123;-68
2023/06/15 01:23:07;;;;;;;6.75;4.90;;;15.10;99.90;;;;;;5047753;28;20067;-69
2023/06/15 01:25:53;;;;;;;9.25;4.53;;;15.10;99.90;;;;;;5059143;28;20121;-69
2023/06/15 01:28:20;;;;;;;7.57;4.53;;;15.10;99.90;;;;;;5064272;28;20056;-68
2023/06/15 01:30:55;;;;;;;8.93;4.85;;;15.10;99.90;;;;;;5062478;28;20501;-68
2023/06/15 01:33:22;;;;;;;7.70;4.35;;;15.10;99.90;;;;;;5036133;28;20055;-69
2023/06/15 01:35:48;;;;;;;7.72;4.30;;;15.10;99.90;;;;;;5061350;28;21424;-69
2023/06/15 01:38:17;;;;;;;6.38;4.70;;;15.00;99.90;;;;;;5081464;28;20051;-68
2023/06/15 01:40:47;;;;;;;6.35;3.92;;;15.00;99.90;;;;;;5080298;28;20511;-68
2023/06/15 01:43:18;;;;;;;8.68;4.45;;;15.00;99.90;;;;;;5082415;28;20821;-69
2023/06/15 01:45:45;;;;;;;6.55;4.45;;;15.00;99.90;;;;;;5073524;28;20519;-68
2023/06/15 01:48:13;;;;;;;7.22;4.18;;;15.00;99.90;;;;;;5049756;28;20169;-68
2023/06/15 01:50:40;;;;;;;7.80;4.97;;;15.00;99.90;;;;;;5044650;28;20043;-68
2023/06/15 01:53:06;;;;;;;9.10;5.07;;;14.90;99.90;;;;;;5076921;28;20093;-67
2023/06/15 01:55:33;;;;;;;7.65;4.78;;;14.90;99.90;;;;;;5077857;28;20123;-68
2023/06/15 01:57:59;;;;;;;8.02;5.13;;;14.90;99.90;;;;;;5065073;28;20047;-69
2023/06/15 02:00:25;;;;;;;9.07;4.90;;;14.80;99.90;;;;;;5081361;28;20039;-69
2023/06/15 02:02:51;;;;;;;8.40;4.55;;;14.80;99.90;;;;;;5048085;28;20048;-69
2023/06/15 02:05:17;;;;;;;7.25;4.68;;;14.80;99.90;;;;;;5068055;28;20455;-69
2023/06/15 02:07:44;;;;;;;6.85;4.82;;;14.80;99.90;;;;;;5064273;28;20135;-68
2023/06/15 02:10:10;;;;;;;8.55;5.30;;;14.80;99.90;;;;;;5079561;28;20052;-68
2023/06/15 02:12:35;;;;;;;7.90;4.97;;;14.70;99.90;;;;;;5043114;28;20412;-68
2023/06/15 02:15:02;;;;;;;9.63;5.05;;;14.70;99.90;;;;;;5077684;28;20067;-68
2023/06/15 02:17:41;;;;;;;7.72;5.40;;;14.70;99.90;;;;;;5066334;28;20047;-69
2023/06/15 02:20:11;;;;;;;7.95;5.07;;;14.70;99.90;;;;;;5066122;28;20092;-69
2023/06/15 02:22:38;;;;;;;9.73;5.28;;;14.60;99.90;;;;;;5052938;28;20496;-69
2023/06/15 02:25:04;;;;;;;7.88;4.75;;;14.50;99.90;;;;;;5059999;28;20065;-69
2023/06/15 02:27:30;;;;;;;8.93;4.75;;;14.50;99.90;;;;;;5046286;28;20036;-69
2023/06/15 02:29:56;;;;;;;6.97;4.80;;;14.50;99.90;;;;;;5049646;28;20051;-68
2023/06/15 02:32:36;;;;;;;7.20;4.25;;;14.60;99.90;;;;;;5054659;28;20037;-69
2023/06/15 02:35:05;;;;;;;8.25;5.47;;;14.60;99.90;;;;;;5045395;28;20052;-69
2023/06/15 02:37:30;;;;;;;7.95;5.00;;;14.60;99.90;;;;;;5037681;28;20036;-68
2023/06/15 02:39:58;;;;;;;10.63;5.43;;;14.60;99.90;;;;;;5033598;28;20039;-68
2023/06/15 02:42:24;;;;;;;6.95;5.22;;;14.50;99.90;;;;;;5061675;28;20500;-68
2023/06/15 02:44:50;;;;;;;7.47;5.28;;;14.60;99.90;;;;;;5063666;28;20165;-68
2023/06/15 02:47:16;;;;;;;7.57;5.07;;;14.60;99.90;;;;;;5057137;28;21267;-69
2023/06/15 02:49:42;;;;;;;6.50;4.55;;;14.50;99.90;;;;;;5045083;28;20079;-69
2023/06/15 02:52:08;;;;;;;9.85;5.20;;;14.50;99.90;;;;;;5044089;28;20044;-69
2023/06/15 02:54:36;;;;;;;8.43;5.97;;;14.50;99.90;;;;;;5048436;28;20035;-69
2023/06/15 02:57:06;;;;;;;10.60;5.22;;;14.50;99.90;;;;;;5043967;28;20458;-69
2023/06/15 02:59:34;;;;;;;8.30;5.10;;;14.50;99.90;;;;;;5027753;28;20044;-69
2023/06/15 03:02:02;;;;;;;9.63;5.90;;;14.40;99.90;;;;;;5049684;28;20071;-68
2023/06/15 03:04:28;;;;;;;6.82;5.55;;;14.50;99.90;;;;;;5066662;28;20104;-68
2023/06/15 03:06:57;;;;;;;8.15;5.85;;;14.40;99.90;;;;;;5064868;28;20048;-69
2023/06/15 03:09:23;;;;;;;8.25;5.70;;;14.40;99.90;;;;;;5071122;28;20123;-68
2023/06/15 03:11:52;;;;;;;8.40;5.78;;;14.30;99.90;;;;;;5038343;28;20123;-68
2023/06/15 03:14:21;;;;;;;13.23;6.40;;;14.40;99.90;;;;;;5057607;28;20044;-68
2023/06/15 03:16:47;;;;;;;12.23;6.55;;;14.30;99.90;;;;;;5046280;28;20059;-68
2023/06/15 03:19:17;;;;;;;10.70;6.10;;;14.30;99.90;;;;;;5067702;28;20488;-68
2023/06/15 03:21:47;;;;;;;8.10;6.33;;;14.30;99.90;;;;;;5061564;28;20048;-68
2023/06/15 03:24:13;;;;;;;8.20;6.50;;;14.30;99.90;;;;;;5067880;28;20056;-68
2023/06/15 03:26:47;;;;;;;9.07;6.75;;;14.30;99.90;;;;;;5066122;28;20051;-68
2023/06/15 03:29:13;;;;;;;7.60;5.97;;;14.20;99.90;;;;;;5057844;28;20108;-68
2023/06/15 03:31:40;;;;;;;9.35;6.43;;;14.20;99.90;;;;;;5027371;28;20056;-68
2023/06/15 03:34:10;;;;;;;8.05;6.15;;;14.20;99.90;;;;;;5043662;28;20427;-69
2023/06/15 03:36:36;;;;;;;9.43;6.90;;;14.10;99.90;;;;;;5038522;28;20040;-68
2023/06/15 03:39:03;;;;;;;10.40;7.03;;;14.10;99.90;;;;;;5047008;28;20130;-69
2023/06/15 03:41:30;;;;;;;10.98;7.43;;;14.10;99.90;;;;;;5048226;28;20093;-68
2023/06/15 03:43:56;;;;;;;9.55;6.75;;;14.00;99.90;;;;;;5055525;28;20044;-69
2023/06/15 03:46:22;;;;;;;9.23;6.97;;;14.00;99.90;;;;;;5053608;28;20098;-69
2023/06/15 03:48:51;;;;;;;9.25;7.00;;;14.00;99.90;;;;;;5086047;28;20041;-69
2023/06/15 03:51:16;;;;;;;9.23;7.47;;;13.90;99.90;;;;;;5047971;28;20041;-69
2023/06/15 03:53:43;;;;;;;10.27;7.85;;;13.90;99.90;;;;;;5067480;28;20052;-68
2023/06/15 03:56:09;;;;;;;9.85;7.97;;;13.80;99.90;;;;;;5037671;28;20063;-69
2023/06/15 03:58:35;;;;;;;8.52;7.50;;;13.80;99.90;;;;;;5046008;28;20047;-68
2023/06/15 04:01:04;;;;;;;9.95;8.32;;;13.80;99.90;;;;;;5072905;28;20060;-70
2023/06/15 04:03:36;;;;;;;12.52;7.65;;;13.80;99.90;;;;;;5040646;28;20353;-70
2023/06/15 04:06:04;;;;;;;11.45;8.90;;;13.80;99.90;;;;;;5061256;28;20407;-71
2023/06/15 04:08:32;;;;;;;10.35;8.10;;;13.90;99.90;;;;;;5058385;28;20094;-70
2023/06/15 04:10:58;;;;;;;13.32;8.65;;;13.90;99.90;;;;;;5046258;28;20412;-69
2023/06/15 04:13:24;;;;;;;11.38;8.82;;;13.90;99.90;;;;;;5062558;28;20048;-69
2023/06/15 04:15:50;;;;;;;12.05;9.75;;;13.90;99.90;;;;;;5046859;28;20412;-70
2023/06/15 04:18:17;;;;;;;15.55;11.45;;;13.80;99.90;;;;;;5048782;28;20508;-70
2023/06/15 04:20:43;;;;;;;13.05;10.73;;;13.90;99.90;;;;;;5055996;28;20051;-70
2023/06/15 04:23:10;;;;;;;11.80;10.57;;;13.90;99.90;;;;;;5060835;28;20139;-71
2023/06/15 04:25:37;;;;;;;13.32;10.60;;;13.90;99.90;;;;;;5040009;28;20067;-70
2023/06/15 04:28:10;;;;;;;12.02;10.55;;;13.90;99.90;;;;;;5046613;28;20043;-70
2023/06/15 04:30:40;;;;;;;15.70;11.85;;;14.00;99.90;;;;;;5089307;28;20066;-70
2023/06/15 04:33:13;;;;;;;11.77;9.80;;;14.00;99.90;;;;;;5055831;28;20127;-70
2023/06/15 04:35:45;;;;;;;12.20;10.90;;;14.10;99.90;;;;;;5063369;28;20052;-70
2023/06/15 04:38:12;;;;;;;12.70;10.57;;;14.10;99.90;;;;;;5058325;28;20312;-70
2023/06/15 04:40:39;;;;;;;12.18;10.52;;;14.20;99.90;;;;;;5055978;28;20413;-70
2023/06/15 04:43:05;;;;;;;10.23;9.18;;;14.20;99.90;;;;;;5066871;28;20040;-70
2023/06/15 04:45:31;;;;;;;10.63;8.82;;;14.30;99.90;;;;;;5061065;28;20694;-70
2023/06/15 04:47:57;;;;;;;9.85;8.48;;;14.40;99.90;;;;;;5057890;28;20469;-70
2023/06/15 04:50:23;;;;;;;10.65;8.38;;;14.40;99.90;;;;;;5079952;28;20197;-70
2023/06/15 04:52:49;;;;;;;11.70;7.93;;;14.50;99.90;;;;;;5049540;28;20443;-70
2023/06/15 04:55:15;;;;;;;8.73;7.43;;;14.60;99.90;;;;;;5080448;28;20051;-70
2023/06/15 04:57:41;;;;;;;9.32;7.53;;;14.70;99.90;;;;;;5058774;28;20052;-71
2023/06/15 05:00:08;;;;;;;8.75;6.97;;;14.70;99.90;;;;;;5066682;28;20408;-70
2023/06/15 05:02:34;;;;;;;9.38;6.90;;;14.80;99.90;;;;;;5057487;28;20051;-70
2023/06/15 05:05:00;;;;;;;7.47;6.68;;;14.90;99.90;;;;;;5048198;28;20036;-70
2023/06/15 05:07:26;;;;;;;8.80;6.60;;;15.00;99.90;;;;;;5043141;28;20097;-70
2023/06/15 05:09:52;;;;;;;7.35;5.72;;;15.10;99.90;;;;;;5045628;28;20571;-70
2023/06/15 05:12:18;;;;;;;9.85;5.43;;;15.20;99.90;;;;;;5042933;28;20040;-70
2023/06/15 05:14:44;;;;;;;9.43;5.90;;;15.30;99.90;;;;;;5041798;28;20109;-70
2023/06/15 05:17:09;;;;;;;8.80;5.35;;;15.40;99.90;;;;;;5064470;28;20126;-70
2023/06/15 05:19:35;;;;;;;7.53;5.35;;;15.50;99.90;;;;;;5042082;28;20168;-70
2023/06/15 05:22:02;;;;;;;8.20;5.43;;;15.60;99.90;;;;;;5048287;28;20051;-70
2023/06/15 05:24:28;;;;;;;6.47;5.00;;;15.70;99.90;;;;;;5061746;28;20460;-70
2023/06/15 05:26:54;;;;;;;7.30;4.40;;;15.80;99.90;;;;;;5045231;28;20135;-70
2023/06/15 05:29:20;;;;;;;7.85;4.43;;;15.90;99.90;;;;;;5046716;28;20040;-71
2023/06/15 05:31:46;;;;;;;7.15;4.40;;;16.00;99.90;;;;;;5045895;28;20048;-70
2023/06/15 05:34:12;;;;;;;6.28;3.80;;;16.00;99.90;;;;;;5061840;28;20043;-70
2023/06/15 05:36:38;;;;;;;7.82;4.50;;;16.20;99.90;;;;;;5062693;28;20044;-71
2023/06/15 05:39:04;;;;;;;8.82;4.32;;;16.20;99.90;;;;;;5042115;28;20396;-71
2023/06/15 05:41:30;;;;;;;6.43;4.13;;;16.30;99.90;;;;;;5063532;28;20079;-70
2023/06/15 05:43:57;;;;;;;5.40;4.30;;;16.40;99.90;;;;;;5058701;28;20040;-71
2023/06/15 05:46:23;;;;;;;5.63;3.80;;;16.50;99.90;;;;;;5065725;28;20138;-70
2023/06/15 05:48:49;;;;;;;7.22;4.18;;;16.60;99.90;;;;;;5046518;28;20423;-71
2023/06/15 05:51:15;;;;;;;7.97;3.95;;;16.70;99.90;;;;;;5050365;28;20048;-71
2023/06/15 05:53:40;;;;;;;7.32;3.80;;;16.70;99.90;;;;;;5057002;28;20033;-71
2023/06/15 05:56:06;;;;;;;7.55;4.13;;;16.80;99.90;;;;;;5061374;28;20472;-71
2023/06/15 05:58:32;;;;;;;6.55;3.97;;;16.90;99.90;;;;;;5045170;28;20074;-72
2023/06/15 06:00:58;;;;;;;7.03;4.20;;;17.00;99.90;;;;;;5059267;28;20084;-70
2023/06/15 06:03:23;;;;;;;6.95;3.95;;;17.00;99.90;;;;;;5062319;28;20114;-75
2023/06/15 06:05:50;;;;;;;6.90;4.03;;;17.10;99.90;;;;;;5056945;28;20059;-75
2023/06/15 06:08:17;;;;;;;6.60;4.00;;;17.20;99.90;;;;;;5027127;28;20036;-75
2023/06/15 06:10:42;;;;;;;5.55;3.47;;;17.30;99.90;;;;;;5043117;28;20351;-75
2023/06/15 06:13:08;;;;;;;6.93;3.70;;;17.40;99.90;;;;;;5064189;28;20342;-75
2023/06/15 06:15:34;;;;;;;7.65;3.85;;;17.50;99.90;;;;;;5012943;28;20070;-75
2023/06/15 06:18:02;;;;;;;6.28;3.55;;;17.60;99.90;;;;;;5068505;28;20060;-75
2023/06/15 06:20:28;;;;;;;7.03;3.40;;;17.70;99.90;;;;;;5063276;28;20051;-77
2023/06/15 06:22:53;;;;;;;5.70;3.67;;;17.80;99.90;;;;;;5047094;28;20048;-75
2023/06/15 06:25:19;;;;;;;7.10;3.42;;;17.90;99.90;;;;;;5045763;28;20093;-75
2023/06/15 06:27:45;;;;;;;5.32;3.50;;;17.90;99.90;;;;;;5048208;28;20071;-75
2023/06/15 06:30:14;;;;;;;6.28;3.35;;;18.00;99.90;;;;;;5033047;28;20054;-75
2023/06/15 06:32:40;;;;;;;5.78;3.10;;;18.10;99.90;;;;;;5031456;28;20209;-75
2023/06/15 06:35:09;;;;;;;9.30;3.60;;;18.20;99.90;;;;;;5063718;28;20051;-75
2023/06/15 06:37:35;;;;;;;13.90;3.73;;;18.30;99.50;;;;;;5056306;28;20070;-76
2023/06/15 06:40:00;;;;;;;6.28;3.20;;;18.40;98.10;;;;;;5044195;28;20448;-75
2023/06/15 06:42:26;;;;;;;6.15;2.83;;;18.60;96.60;;;;;;5052738;28;20039;-75
2023/06/15 06:44:52;;;;;;;4.90;2.53;;;18.60;95.70;;;;;;5051838;28;20052;-72
2023/06/15 06:47:18;;;;;;;5.88;3.05;;;18.80;94.90;;;;;;5051806;28;20064;-72
2023/06/15 06:49:43;;;;;;;4.85;2.92;;;18.90;94.70;;;;;;5034149;28;20124;-72
2023/06/15 06:52:09;;;;;;;7.05;3.10;;;19.00;93.60;;;;;;5035049;28;20044;-71
2023/06/15 06:54:35;;;;;;;5.68;3.25;;;19.10;92.70;;;;;;5068382;28;20643;-71
2023/06/15 06:57:03;;;;;;;6.03;3.10;;;19.30;92.00;;;;;;5031663;28;20098;-72
2023/06/15 06:59:29;;;;;;;9.35;3.30;;;19.30;92.10;;;;;;5068692;28;20040;-72
2023/06/15 07:01:55;;;;;;;6.88;3.28;;;19.40;92.00;;;;;;5050140;28;20182;-72
2023/06/15 07:04:20;;;;;;;6.57;2.97;;;19.50;90.80;;;;;;5036076;28;20074;-73
2023/06/15 07:06:46;;;;;;;5.53;2.80;;;19.70;90.30;;;;;;5033246;28;20396;-73
2023/06/15 07:09:12;;;;;;;8.15;3.00;;;19.80;89.10;;;;;;5050011;28;20519;-73
2023/06/15 07:11:38;;;;;;;6.32;3.25;;;19.90;90.00;;;;;;5068068;28;20055;-72
2023/06/15 07:14:04;;;;;;;5.93;2.80;;;20.00;90.20;;;;;;5050120;28;20043;-71
2023/06/15 07:16:30;;;;;;;5.85;3.30;;;20.10;90.20;;;;;;5034240;28;20061;-72
2023/06/15 07:18:57;;;;;;;5.30;2.75;;;20.40;90.00;;;;;;5051721;28;20055;-72
2023/06/15 07:21:23;;;;;;;4.38;2.80;;;20.50;88.70;;;;;;5044542;28;20500;-73
2023/06/15 07:23:49;;;;;;;5.82;2.78;;;20.60;87.80;;;;;;5031846;28;20052;-72
2023/06/15 07:26:14;;;;;;;5.70;2.75;;;20.70;84.10;;;;;;5064689;28;20383;-72
2023/06/15 07:28:40;;;;;;;6.40;3.03;;;20.80;83.10;;;;;;5049918;28;20112;-73
2023/06/15 07:31:06;;;;;;;7.93;3.20;;;20.90;82.40;;;;;;5045026;28;20577;-72
2023/06/15 07:33:32;;;;;;;5.13;2.60;;;21.00;82.70;;;;;;5065284;28;20814;-73
2023/06/15 07:35:57;;;;;;;5.82;2.70;;;21.20;81.60;;;;;;5050213;28;20048;-72
2023/06/15 07:38:23;;;;;;;5.57;2.70;;;21.40;82.00;;;;;;5034245;28;20392;-72
2023/06/15 07:40:49;;;;;;;6.88;2.60;;;21.50;80.60;;;;;;5063863;28;20404;-72
2023/06/15 07:43:15;;;;;;;5.20;2.95;;;21.60;78.90;;;;;;5046936;28;20780;-73
2023/06/15 07:45:45;;;;;;;5.75;3.10;;;21.70;78.20;;;;;;5069193;28;20047;-72
2023/06/15 07:48:14;;;;;;;8.98;3.08;;;21.80;78.60;;;;;;5049345;28;20079;-72
2023/06/15 07:50:40;;;;;;;7.03;2.75;;;21.80;75.90;;;;;;5035749;28;20040;-73
2023/06/15 07:53:05;;;;;;;6.18;2.78;;;21.90;76.30;;;;;;5030333;28;20040;-73
2023/06/15 07:55:32;;;;;;;5.68;2.80;;;21.90;75.50;;;;;;5062918;28;20546;-72
2023/06/15 07:57:58;;;;;;;6.40;2.75;;;22.00;76.20;;;;;;5036992;28;20067;-72
2023/06/15 08:00:23;;;;;;;4.75;2.60;;;22.20;74.60;;;;;;5049055;28;20087;-72
2023/06/15 08:02:49;;;;;;;5.80;2.85;;;22.30;71.50;;;;;;5034269;28;20046;-72
2023/06/15 08:05:15;;;;;;;6.93;2.90;;;22.30;70.60;;;;;;5047254;28;20398;-72
2023/06/15 08:07:42;;;;;;;8.35;3.00;;;22.40;71.60;;;;;;5033066;28;20050;-72
2023/06/15 08:10:08;;;;;;;5.00;2.92;;;22.50;70.20;;;;;;5065695;28;20101;-73
2023/06/15 08:12:34;;;;;;;4.10;2.90;;;22.60;70.80;;;;;;5050453;28;20039;-72
2023/06/15 08:14:59;;;;;;;3.67;2.60;;;22.70;71.50;;;;;;5015822;28;20052;-73
2023/06/15 08:17:26;;;;;;;4.88;2.53;;;22.90;70.00;;;;;;5051754;28;20408;-72
2023/06/15 08:19:52;;;;;;;7.10;3.10;;;23.00;69.00;;;;;;5032855;28;20088;-73
2023/06/15 08:22:18;;;;;;;4.30;2.25;;;23.00;66.80;;;;;;5048591;28;20047;-72
2023/06/15 08:24:45;;;;;;;8.98;2.55;;;23.00;67.90;;;;;;5065240;28;20056;-73
2023/06/15 08:27:14;;;;;;;7.32;3.20;;;23.00;68.30;;;;;;5035277;28;20044;-73
2023/06/15 08:29:44;;;;;;;7.72;2.80;;;23.20;68.40;;;;;;5035003;28;20119;-72
2023/06/15 08:32:13;;;;;;;;;;;23.30;67.10;;;;;;5050736;28;20047;-72
2023/06/15 08:34:46;;;;;;;7.50;2.50;;;23.40;60.80;;;;;;5051090;28;20058;-72
2023/06/15 08:37:12;;;;;;;6.57;2.85;;;23.40;65.40;;;;;;5066048;28;20178;-73
2023/06/15 08:39:38;;;;;;;4.53;2.50;;;23.60;66.00;;;;;;5032495;28;20032;-72
2023/06/15 08:42:06;;;;;;;6.03;2.78;;;23.70;64.50;;;;;;5033391;28;20048;-72
2023/06/15 08:44:33;;;;;;;7.38;2.92;;;23.70;64.00;;;;;;5049327;28;20487;-73
2023/06/15 08:47:03;;;;;;;5.50;2.63;;;23.60;62.80;;;;;;5048658;28;20067;-73
2023/06/15 08:49:30;;;;;;;;;;;23.50;61.60;;;;;;5064125;28;20036;-73
2023/06/15 08:52:00;;;;;;;7.68;2.90;;;23.60;61.40;;;;;;5063523;28;19920;-72
2023/06/15 08:54:32;;;;;;;6.03;2.83;;;23.60;61.00;;;;;;5064142;28;20067;-72
2023/06/15 08:56:58;;;;;;;6.78;2.97;;;23.60;58.80;;;;;;5063841;28;20580;-72
2023/06/15 08:59:25;;;;;;;12.15;3.10;;;23.60;59.00;;;;;;5065990;28;20040;-72
2023/06/15 09:01:55;;;;;;;5.07;2.72;;;23.60;60.00;;;;;;5049540;28;20048;-73
2023/06/15 09:04:20;;;;;;;;;;;23.70;59.40;;;;;;5066501;28;20392;-73
2023/06/15 09:06:48;;;;;;;7.60;2.75;;;23.80;61.60;;;;;;5049093;28;19920;-73
2023/06/15 09:09:14;;;;;;;6.18;2.60;;;23.90;57.80;;;;;;5062208;28;20149;-73
2023/06/15 09:11:44;;;;;;;5.65;2.80;;;24.00;60.90;;;;;;5066282;28;20040;-73
2023/06/15 09:14:11;;;;;;;5.57;2.80;;;24.20;62.10;;;;;;5049594;28;20077;-73
2023/06/15 09:16:41;;;;;;;6.95;3.05;;;24.30;59.70;;;;;;5064045;28;20044;-73
2023/06/15 09:19:13;;;;;;;7.65;2.97;;;24.40;60.00;;;;;;5030844;28;20040;-72
2023/06/15 09:21:41;;;;;;;5.72;2.47;;;24.40;59.80;;;;;;5061430;28;20478;-72
2023/06/15 09:24:10;;;;;;;5.25;2.97;;;24.60;61.10;;;;;;5019706;28;20060;-72
2023/06/15 09:26:39;;;;;;;5.32;2.75;;;24.70;60.20;;;;;;5033148;28;20040;-72
2023/06/15 09:29:10;;;;;;;7.05;2.63;;;24.80;60.60;;;;;;5056911;28;20044;-72
2023/06/15 09:31:42;;;;;;;4.65;2.85;;;24.90;59.40;;;;;;5049598;28;20046;-77
2023/06/15 09:34:13;;;;;;;7.03;2.88;;;24.80;58.80;;;;;;5065084;28;20048;-77
2023/06/15 09:36:40;;;;;;;7.28;3.30;;;24.80;57.70;;;;;;5029738;28;20133;-76
2023/06/15 09:39:09;;;;;;;5.75;2.75;;;24.90;57.20;;;;;;5066834;28;20096;-76
2023/06/15 09:41:35;;;;;;;6.53;2.73;;;24.80;57.80;;;;;;5045750;28;20456;-76
2023/06/15 09:44:05;;;;;;;5.78;2.88;;;24.90;59.00;;;;;;5063870;28;20475;-77
2023/06/15 09:46:31;;;;;;;5.63;2.97;;;25.10;58.20;;;;;;5047535;28;20043;-77
2023/06/15 09:48:57;;;;;;;3.95;2.47;;;25.20;57.20;;;;;;5064401;28;20047;-77
2023/06/15 09:51:28;;;;;;;6.53;3.13;;;25.10;56.20;;;;;;5064265;28;20039;-73
2023/06/15 09:53:54;;;;;;;6.18;2.83;;;25.00;53.40;;;;;;5045785;28;20058;-73
2023/06/15 09:56:23;;;;;;;8.48;3.13;;;24.90;53.50;;;;;;5061041;28;20075;-73
2023/06/15 09:58:49;;;;;;;4.40;2.80;;;24.90;53.50;;;;;;5062987;28;20036;-73
2023/06/15 10:01:18;;;;;;;7.60;2.70;;;25.00;53.20;;;;;;5064098;28;20071;-73
2023/06/15 10:03:47;;;;;;;6.93;3.03;;;25.10;53.60;;;;;;5063327;28;20512;-73
2023/06/15 10:06:16;;;;;;;4.97;2.63;;;25.20;51.80;;;;;;5059346;28;20056;-73
2023/06/15 10:08:44;;;;;;;5.55;2.83;;;25.20;53.60;;;;;;5060398;28;20056;-73
2023/06/15 10:11:12;;;;;;;4.32;2.65;;;25.30;53.20;;;;;;5064266;28;20098;-73
2023/06/15 10:13:52;;;;;;;6.88;2.55;;;25.50;52.90;;;;;;5044340;28;20048;-73
2023/06/15 10:16:18;;;;;;;;;;;25.60;53.20;;;;;;5064664;28;20055;-72
2023/06/15 10:18:46;;;;;;;8.75;2.55;;;25.80;55.30;;;;;;5067533;28;19920;-73
2023/06/15 10:21:18;;;;;;;3.80;2.30;;;25.80;53.60;;;;;;5046028;28;20051;-72
2023/06/15 10:23:46;;;;;;;4.82;2.70;;;25.90;53.40;;;;;;5065281;28;20105;-72
2023/06/15 10:26:15;;;;;;;4.28;2.70;;;25.80;51.70;;;;;;5049639;28;20056;-72
2023/06/15 10:28:50;;;;;;;6.80;3.00;;;25.60;51.80;;;;;;5048271;28;20119;-72
2023/06/15 10:31:32;;;;;;;5.43;2.60;;;25.40;50.40;;;;;;5065765;28;20044;-73
2023/06/15 10:34:30;;;;;;;5.43;2.90;;;25.60;51.90;;;;;;5049623;28;20056;-72
2023/06/15 10:37:07;;;;;;;5.68;2.67;;;25.60;51.30;;;;;;5051942;28;20569;-73
2023/06/15 10:39:43;;;;;;;6.45;2.80;;;25.70;51.20;;;;;;5068085;28;20047;-74
2023/06/15 10:42:13;;;;;;;5.32;2.55;;;25.80;51.20;;;;;;5050114;28;20104;-73
2023/06/15 10:44:38;;;;;;;6.05;2.70;;;25.90;50.60;;;;;;5067394;28;20036;-72
2023/06/15 10:47:14;;;;;;;3.67;2.42;;;25.90;51.10;;;;;;5050385;28;20439;-73
2023/06/15 10:49:50;;;;;;;4.50;2.45;;;25.80;49.90;;;;;;5064288;28;20048;-72
2023/06/15 10:52:16;;;;;;;4.85;2.80;;;25.90;51.40;;;;;;5063789;28;20044;-72
2023/06/15 10:54:46;;;;;;;5.18;2.60;;;26.10;50.80;;;;;;5048530;28;20063;-72
2023/06/15 10:57:19;;;;;;;8.48;2.78;;;26.20;50.60;;;;;;5033125;28;20451;-72
2023/06/15 10:59:53;;;;;;;4.38;3.03;;;26.30;49.40;;;;;;5052337;28;20541;-73
2023/06/15 11:02:28;;;;;;;5.78;2.67;;;26.20;50.10;;;;;;5048522;28;20036;-73
2023/06/15 11:05:04;;;;;;;5.38;2.90;;;26.30;51.60;;;;;;5067554;28;20563;-73
2023/06/15 11:07:34;;;;;;;6.38;3.10;;;26.30;47.80;;;;;;5067164;28;20454;-73
2023/06/15 11:10:09;;;;;;;4.10;2.47;;;26.30;47.50;;;;;;5049661;28;20067;-73
2023/06/15 11:12:40;;;;;;;4.60;2.70;;;26.30;48.40;;;;;;5052025;28;20052;-73
2023/06/15 11:15:09;;;;;;;5.85;2.70;;;26.40;50.10;;;;;;5063799;28;20078;-73
2023/06/15 11:17:57;;;;;;;4.82;2.55;;;26.50;48.70;;;;;;5068352;28;20063;-72
2023/06/15 11:20:46;;;;;;;7.40;3.05;;;26.40;46.60;;;;;;5065302;28;20051;-72
2023/06/15 11:23:16;;;;;;;3.95;2.60;;;26.40;44.80;;;;;;5068269;28;20597;-72
2023/06/15 11:25:46;;;;;;;;;;;26.20;44.90;;;;;;5067404;28;20052;-73
2023/06/15 11:28:20;;;;;;;5.95;2.63;;;26.10;45.20;;;;;;5049590;28;19946;-72
2023/06/15 11:30:53;;;;;;;5.15;2.50;;;26.10;45.50;;;;;;5051392;28;20545;-71
2023/06/15 11:33:36;;;;;;;7.60;2.67;;;26.30;47.40;;;;;;5065411;28;20048;-72
2023/06/15 11:36:04;;;;;;;4.47;2.63;;;26.30;48.00;;;;;;5050924;28;20054;-72
2023/06/15 11:38:30;;;;;;;5.93;2.75;;;26.30;47.40;;;;;;5052654;28;20140;-73
2023/06/15 11:41:00;;;;;;;4.20;2.63;;;26.40;46.60;;;;;;5062102;28;20396;-72
2023/06/15 11:43:31;;;;;;;6.18;2.90;;;26.60;47.20;;;;;;5048999;28;20075;-72
2023/06/15 11:45:57;;;;;;;5.60;2.85;;;26.70;47.30;;;;;;5080850;28;20101;-71
2023/06/15 11:48:24;;;;;;;3.40;2.60;;;26.50;46.00;;;;;;5046893;28;20424;-72
2023/06/15 11:50:50;;;;;;;8.27;2.70;;;26.40;46.60;;;;;;5036014;28;20066;-72
2023/06/15 11:53:16;;;;;;;6.93;2.88;;;26.30;47.40;;;;;;5032541;28;20044;-71
2023/06/15 11:55:46;;;;;;;4.65;3.28;;;26.30;47.20;;;;;;5060523;28;20142;-72
2023/06/15 11:58:12;;;;;;;4.80;2.55;;;26.40;47.00;;;;;;5064219;28;20059;-72
2023/06/15 12:00:44;;;;;;;5.20;2.63;;;26.50;47.00;;;;;;5064148;28;20044;-72
2023/06/15 12:03:15;;;;;;;7.03;2.88;;;26.70;49.00;;;;;;5049662;28;20496;-72
2023/06/15 12:05:41;;;;;;;5.50;2.85;;;26.90;46.90;;;;;;5049064;28;20504;-72
2023/06/15 12:08:11;;;;;;;5.68;2.75;;;26.90;43.90;;;;;;5035033;28;20052;-71
2023/06/15 12:10:37;;;;;;;5.50;2.88;;;26.80;43.70;;;;;;5048568;28;20102;-72
2023/06/15 12:13:09;;;;;;;4.68;3.17;;;26.60;46.60;;;;;;5067246;28;20068;-72
2023/06/15 12:15:38;;;;;;;4.20;2.85;;;26.60;47.30;;;;;;5046673;28;20048;-71
2023/06/15 12:18:07;;;;;;;5.68;3.00;;;26.50;46.00;;;;;;5068212;28;20508;-72
2023/06/15 12:20:36;;;;;;;7.25;3.15;;;26.30;47.30;;;;;;5046750;28;20033;-72
2023/06/15 12:23:04;;;;;;;5.18;2.88;;;26.30;46.80;;;;;;5045263;28;20101;-72
2023/06/15 12:25:47;;;;;;;7.45;2.72;;;26.40;47.10;;;;;;5061140;28;20048;-72
2023/06/15 12:28:17;;;;;;;4.93;2.70;;;26.70;44.70;;;;;;5048343;28;20090;-72
2023/06/15 12:30:49;;;;;;;4.63;2.80;;;26.80;45.60;;;;;;5060249;28;20040;-72
2023/06/15 12:33:34;;;;;;;6.35;2.80;;;26.80;45.10;;;;;;5062765;28;20050;-72
2023/06/15 12:36:02;;;;;;;5.00;2.67;;;26.90;44.20;;;;;;5082899;28;20471;-72
2023/06/15 12:38:29;;;;;;;5.57;3.15;;;26.80;44.50;;;;;;5062374;28;20421;-72
2023/06/15 12:40:57;;;;;;;6.40;2.50;;;26.70;44.40;;;;;;5063829;28;20483;-73
2023/06/15 12:43:27;;;;;;;4.55;2.80;;;26.60;46.20;;;;;;5048734;28;20539;-72
2023/06/15 12:45:56;;;;;;;5.63;2.70;;;26.50;46.60;;;;;;5050764;28;20052;-72
2023/06/15 12:48:22;;;;;;;3.55;3.00;;;26.50;46.70;;;;;;5048591;28;20551;-72
2023/06/15 12:50:52;;;;;;;5.18;3.00;;;26.70;45.10;;;;;;5050173;28;20040;-73
2023/06/15 12:53:18;;;;;;;;;;;26.80;45.40;;;;;;5034590;28;20524;-72